sensor_id;sensor_type;location;lat;lon;timestamp;P1;durP1;ratioP1;P2;durP2;ratioP2
7901;SDS011;3996;49.674;10.716;2024-01-30T00:02:15;7.73;;;5.13;;
7901;SDS011;3996;49.674;10.716;2024-01-30T00:04:41;10.00;;;5.93;;
7901;SDS011;3996;49.674;10.716;2024-01-30T00:07:07;9.57;;;6.23;;
7901;SDS011;3996;49.674;10.716;2024-01-30T00:09:32;8.80;;;5.57;;
7901;SDS011;3996;49.674;10.716;2024-01-30T00:11:58;8.73;;;6.30;;
7901;SDS011;3996;49.674;10.716;2024-01-30T00:14:24;11.80;;;5.40;;
7901;SDS011;3996;49.674;10.716;2024-01-30T00:16:50;7.87;;;5.33;;
7901;SDS011;3996;49.674;10.716;2024-01-30T00:19:17;9.23;;;5.37;;
7901;SDS011;3996;49.674;10.716;2024-01-30T00:21:42;9.13;;;5.17;;
7901;SDS011;3996;49.674;10.716;2024-01-30T00:24:08;8.03;;;5.40;;
7901;SDS011;3996;49.674;10.716;2024-01-30T00:26:34;9.37;;;5.50;;
7901;SDS011;3996;49.674;10.716;2024-01-30T00:28:59;8.13;;;5.60;;
7901;SDS011;3996;49.674;10.716;2024-01-30T00:31:25;8.67;;;5.27;;
7901;SDS011;3996;49.674;10.716;2024-01-30T00:33:51;9.20;;;5.50;;
7901;SDS011;3996;49.674;10.716;2024-01-30T00:36:16;9.70;;;5.70;;
7901;SDS011;3996;49.674;10.716;2024-01-30T00:38:42;6.83;;;5.00;;
7901;SDS011;3996;49.674;10.716;2024-01-30T00:41:08;7.53;;;5.30;;
7901;SDS011;3996;49.674;10.716;2024-01-30T00:43:34;8.80;;;5.53;;
7901;SDS011;3996;49.674;10.716;2024-01-30T00:46:00;9.90;;;6.53;;
7901;SDS011;3996;49.674;10.716;2024-01-30T00:48:26;16.43;;;9.83;;
7901;SDS011;3996;49.674;10.716;2024-01-30T00:50:52;8.93;;;6.13;;
7901;SDS011;3996;49.674;10.716;2024-01-30T00:53:17;8.57;;;5.73;;
7901;SDS011;3996;49.674;10.716;2024-01-30T00:55:43;8.70;;;5.07;;
7901;SDS011;3996;49.674;10.716;2024-01-30T00:58:09;10.60;;;6.13;;
7901;SDS011;3996;49.674;10.716;2024-01-30T01:00:34;7.47;;;5.47;;
7901;SDS011;3996;49.674;10.716;2024-01-30T01:03:00;8.63;;;5.57;;
7901;SDS011;3996;49.674;10.716;2024-01-30T01:05:26;9.00;;;6.00;;
7901;SDS011;3996;49.674;10.716;2024-01-30T01:07:51;8.07;;;5.97;;
7901;SDS011;3996;49.674;10.716;2024-01-30T01:10:17;7.97;;;5.40;;
7901;SDS011;3996;49.674;10.716;2024-01-30T01:12:43;8.73;;;5.53;;
7901;SDS011;3996;49.674;10.716;2024-01-30T01:15:12;7.97;;;5.47;;
7901;SDS011;3996;49.674;10.716;2024-01-30T01:17:38;8.73;;;5.87;;
7901;SDS011;3996;49.674;10.716;2024-01-30T01:20:04;8.00;;;5.20;;
7901;SDS011;3996;49.674;10.716;2024-01-30T01:22:31;10.00;;;5.97;;
7901;SDS011;3996;49.674;10.716;2024-01-30T01:24:57;8.73;;;5.60;;
7901;SDS011;3996;49.674;10.716;2024-01-30T01:27:23;10.50;;;5.87;;
7901;SDS011;3996;49.674;10.716;2024-01-30T01:29:48;9.17;;;5.43;;
7901;SDS011;3996;49.674;10.716;2024-01-30T01:32:14;6.93;;;5.50;;
7901;SDS011;3996;49.674;10.716;2024-01-30T01:34:40;8.93;;;5.20;;
7901;SDS011;3996;49.674;10.716;2024-01-30T01:37:05;9.80;;;5.30;;
7901;SDS011;3996;49.674;10.716;2024-01-30T01:39:32;8.07;;;5.57;;
7901;SDS011;3996;49.674;10.716;2024-01-30T01:41:58;8.90;;;5.30;;
7901;SDS011;3996;49.674;10.716;2024-01-30T01:44:23;10.97;;;5.80;;
7901;SDS011;3996;49.674;10.716;2024-01-30T01:46:49;10.23;;;5.70;;
7901;SDS011;3996;49.674;10.716;2024-01-30T01:49:15;7.13;;;5.20;;
7901;SDS011;3996;49.674;10.716;2024-01-30T01:51:41;8.60;;;5.63;;
7901;SDS011;3996;49.674;10.716;2024-01-30T01:54:09;7.03;;;5.40;;
7901;SDS011;3996;49.674;10.716;2024-01-30T01:56:36;7.33;;;5.37;;
7901;SDS011;3996;49.674;10.716;2024-01-30T01:59:07;6.13;;;5.03;;
7901;SDS011;3996;49.674;10.716;2024-01-30T02:01:33;8.80;;;5.87;;
7901;SDS011;3996;49.674;10.716;2024-01-30T02:04:02;8.77;;;5.47;;
7901;SDS011;3996;49.674;10.716;2024-01-30T02:06:28;7.50;;;5.43;;
7901;SDS011;3996;49.674;10.716;2024-01-30T02:08:54;9.13;;;5.43;;
7901;SDS011;3996;49.674;10.716;2024-01-30T02:11:20;7.43;;;4.83;;
7901;SDS011;3996;49.674;10.716;2024-01-30T02:13:47;8.53;;;5.10;;
7901;SDS011;3996;49.674;10.716;2024-01-30T02:16:12;9.60;;;5.00;;
7901;SDS011;3996;49.674;10.716;2024-01-30T02:18:38;8.33;;;5.53;;
7901;SDS011;3996;49.674;10.716;2024-01-30T02:21:08;6.80;;;5.40;;
7901;SDS011;3996;49.674;10.716;2024-01-30T02:23:34;8.80;;;5.10;;
7901;SDS011;3996;49.674;10.716;2024-01-30T02:26:00;9.67;;;5.60;;
7901;SDS011;3996;49.674;10.716;2024-01-30T02:28:26;7.23;;;5.37;;
7901;SDS011;3996;49.674;10.716;2024-01-30T02:30:52;8.63;;;5.30;;
7901;SDS011;3996;49.674;10.716;2024-01-30T02:33:18;7.40;;;5.73;;
7901;SDS011;3996;49.674;10.716;2024-01-30T02:38:36;7.23;;;5.50;;
7901;SDS011;3996;49.674;10.716;2024-01-30T02:41:02;9.63;;;5.90;;
7901;SDS011;3996;49.674;10.716;2024-01-30T02:43:27;8.33;;;5.17;;
7901;SDS011;3996;49.674;10.716;2024-01-30T02:45:53;9.53;;;5.83;;
7901;SDS011;3996;49.674;10.716;2024-01-30T02:48:19;7.63;;;5.67;;
7901;SDS011;3996;49.674;10.716;2024-01-30T02:50:44;8.53;;;5.27;;
7901;SDS011;3996;49.674;10.716;2024-01-30T02:53:11;9.10;;;5.70;;
7901;SDS011;3996;49.674;10.716;2024-01-30T02:55:36;9.33;;;5.80;;
7901;SDS011;3996;49.674;10.716;2024-01-30T02:58:02;8.07;;;5.43;;
7901;SDS011;3996;49.674;10.716;2024-01-30T03:00:27;11.33;;;6.00;;
7901;SDS011;3996;49.674;10.716;2024-01-30T03:02:53;8.37;;;5.30;;
7901;SDS011;3996;49.674;10.716;2024-01-30T03:05:19;12.00;;;6.37;;
7901;SDS011;3996;49.674;10.716;2024-01-30T03:07:44;7.37;;;5.63;;
7901;SDS011;3996;49.674;10.716;2024-01-30T03:10:10;7.47;;;5.80;;
7901;SDS011;3996;49.674;10.716;2024-01-30T03:12:36;7.17;;;5.30;;
7901;SDS011;3996;49.674;10.716;2024-01-30T03:15:01;8.73;;;5.67;;
7901;SDS011;3996;49.674;10.716;2024-01-30T03:17:27;9.43;;;5.77;;
7901;SDS011;3996;49.674;10.716;2024-01-30T03:19:52;8.97;;;5.20;;
7901;SDS011;3996;49.674;10.716;2024-01-30T03:22:18;8.87;;;5.67;;
7901;SDS011;3996;49.674;10.716;2024-01-30T03:24:43;8.43;;;5.63;;
7901;SDS011;3996;49.674;10.716;2024-01-30T03:27:09;7.70;;;5.57;;
7901;SDS011;3996;49.674;10.716;2024-01-30T03:29:35;10.00;;;6.13;;
7901;SDS011;3996;49.674;10.716;2024-01-30T03:32:00;8.40;;;5.90;;
7901;SDS011;3996;49.674;10.716;2024-01-30T03:34:26;9.47;;;6.20;;
7901;SDS011;3996;49.674;10.716;2024-01-30T03:36:52;11.20;;;5.70;;
7901;SDS011;3996;49.674;10.716;2024-01-30T03:39:17;7.73;;;5.50;;
7901;SDS011;3996;49.674;10.716;2024-01-30T03:41:43;7.63;;;5.70;;
7901;SDS011;3996;49.674;10.716;2024-01-30T03:44:09;9.00;;;5.70;;
7901;SDS011;3996;49.674;10.716;2024-01-30T03:46:35;11.20;;;6.10;;
7901;SDS011;3996;49.674;10.716;2024-01-30T03:49:01;8.23;;;5.63;;
7901;SDS011;3996;49.674;10.716;2024-01-30T03:51:26;8.33;;;5.50;;
7901;SDS011;3996;49.674;10.716;2024-01-30T03:53:52;8.13;;;5.30;;
7901;SDS011;3996;49.674;10.716;2024-01-30T03:56:17;8.97;;;5.80;;
7901;SDS011;3996;49.674;10.716;2024-01-30T03:58:43;8.67;;;5.33;;
7901;SDS011;3996;49.674;10.716;2024-01-30T04:01:12;7.70;;;5.07;;
7901;SDS011;3996;49.674;10.716;2024-01-30T04:03:39;8.60;;;5.50;;
7901;SDS011;3996;49.674;10.716;2024-01-30T04:06:05;8.17;;;5.07;;
7901;SDS011;3996;49.674;10.716;2024-01-30T04:08:30;8.07;;;6.00;;
7901;SDS011;3996;49.674;10.716;2024-01-30T04:10:56;8.53;;;5.07;;
7901;SDS011;3996;49.674;10.716;2024-01-30T04:13:21;8.00;;;5.20;;
7901;SDS011;3996;49.674;10.716;2024-01-30T04:15:47;7.53;;;5.23;;
7901;SDS011;3996;49.674;10.716;2024-01-30T04:18:12;7.03;;;5.10;;
7901;SDS011;3996;49.674;10.716;2024-01-30T04:20:38;6.57;;;5.10;;
7901;SDS011;3996;49.674;10.716;2024-01-30T04:23:04;7.93;;;5.43;;
7901;SDS011;3996;49.674;10.716;2024-01-30T04:25:29;9.30;;;5.70;;
7901;SDS011;3996;49.674;10.716;2024-01-30T04:27:55;8.13;;;5.67;;
7901;SDS011;3996;49.674;10.716;2024-01-30T04:30:20;8.07;;;5.33;;
7901;SDS011;3996;49.674;10.716;2024-01-30T04:32:46;7.00;;;5.23;;
7901;SDS011;3996;49.674;10.716;2024-01-30T04:35:11;8.40;;;6.23;;
7901;SDS011;3996;49.674;10.716;2024-01-30T04:37:37;9.13;;;5.40;;
7901;SDS011;3996;49.674;10.716;2024-01-30T04:40:03;7.70;;;5.33;;
7901;SDS011;3996;49.674;10.716;2024-01-30T04:42:28;6.93;;;5.60;;
7901;SDS011;3996;49.674;10.716;2024-01-30T04:44:54;8.17;;;5.53;;
7901;SDS011;3996;49.674;10.716;2024-01-30T04:47:20;8.97;;;4.97;;
7901;SDS011;3996;49.674;10.716;2024-01-30T04:49:45;9.00;;;5.50;;
7901;SDS011;3996;49.674;10.716;2024-01-30T04:52:11;10.50;;;5.40;;
7901;SDS011;3996;49.674;10.716;2024-01-30T04:54:36;8.20;;;5.30;;
7901;SDS011;3996;49.674;10.716;2024-01-30T04:57:02;8.83;;;5.27;;
7901;SDS011;3996;49.674;10.716;2024-01-30T04:59:28;8.57;;;5.33;;
7901;SDS011;3996;49.674;10.716;2024-01-30T05:01:54;8.37;;;5.60;;
7901;SDS011;3996;49.674;10.716;2024-01-30T05:04:19;7.33;;;4.90;;
7901;SDS011;3996;49.674;10.716;2024-01-30T05:06:45;7.80;;;5.43;;
7901;SDS011;3996;49.674;10.716;2024-01-30T05:09:11;8.93;;;5.50;;
7901;SDS011;3996;49.674;10.716;2024-01-30T05:11:37;8.37;;;5.70;;
7901;SDS011;3996;49.674;10.716;2024-01-30T05:14:06;8.93;;;5.50;;
7901;SDS011;3996;49.674;10.716;2024-01-30T05:16:33;10.10;;;5.80;;
7901;SDS011;3996;49.674;10.716;2024-01-30T05:18:59;8.13;;;5.97;;
7901;SDS011;3996;49.674;10.716;2024-01-30T05:21:25;8.27;;;6.40;;
7901;SDS011;3996;49.674;10.716;2024-01-30T05:23:50;7.13;;;5.53;;
7901;SDS011;3996;49.674;10.716;2024-01-30T05:26:16;9.37;;;5.87;;
7901;SDS011;3996;49.674;10.716;2024-01-30T05:28:42;9.90;;;5.10;;
7901;SDS011;3996;49.674;10.716;2024-01-30T05:31:11;10.57;;;6.07;;
7901;SDS011;3996;49.674;10.716;2024-01-30T05:33:36;7.47;;;5.47;;
7901;SDS011;3996;49.674;10.716;2024-01-30T05:36:02;11.33;;;6.97;;
7901;SDS011;3996;49.674;10.716;2024-01-30T05:38:28;9.20;;;6.00;;
7901;SDS011;3996;49.674;10.716;2024-01-30T05:40:54;11.40;;;7.00;;
7901;SDS011;3996;49.674;10.716;2024-01-30T05:43:20;9.07;;;6.43;;
7901;SDS011;3996;49.674;10.716;2024-01-30T05:45:45;8.63;;;6.17;;
7901;SDS011;3996;49.674;10.716;2024-01-30T05:48:11;7.67;;;5.70;;
7901;SDS011;3996;49.674;10.716;2024-01-30T05:50:36;9.57;;;5.77;;
7901;SDS011;3996;49.674;10.716;2024-01-30T05:53:02;8.67;;;6.13;;
7901;SDS011;3996;49.674;10.716;2024-01-30T05:55:28;7.60;;;5.47;;
7901;SDS011;3996;49.674;10.716;2024-01-30T05:57:53;8.10;;;5.40;;
7901;SDS011;3996;49.674;10.716;2024-01-30T06:00:19;8.13;;;5.57;;
7901;SDS011;3996;49.674;10.716;2024-01-30T06:02:44;7.27;;;5.87;;
7901;SDS011;3996;49.674;10.716;2024-01-30T06:05:10;8.30;;;6.00;;
7901;SDS011;3996;49.674;10.716;2024-01-30T06:07:35;10.83;;;5.97;;
7901;SDS011;3996;49.674;10.716;2024-01-30T06:10:01;8.23;;;5.80;;
7901;SDS011;3996;49.674;10.716;2024-01-30T06:12:27;8.57;;;5.73;;
7901;SDS011;3996;49.674;10.716;2024-01-30T06:14:53;7.07;;;5.83;;
7901;SDS011;3996;49.674;10.716;2024-01-30T06:17:21;11.10;;;6.23;;
7901;SDS011;3996;49.674;10.716;2024-01-30T06:19:48;9.00;;;6.17;;
7901;SDS011;3996;49.674;10.716;2024-01-30T06:22:13;8.10;;;5.90;;
7901;SDS011;3996;49.674;10.716;2024-01-30T06:24:40;8.00;;;5.57;;
7901;SDS011;3996;49.674;10.716;2024-01-30T06:27:05;9.40;;;6.27;;
7901;SDS011;3996;49.674;10.716;2024-01-30T06:29:31;10.10;;;6.40;;
7901;SDS011;3996;49.674;10.716;2024-01-30T06:31:56;8.40;;;6.43;;
7901;SDS011;3996;49.674;10.716;2024-01-30T06:34:22;8.43;;;6.10;;
7901;SDS011;3996;49.674;10.716;2024-01-30T06:36:47;7.93;;;5.73;;
7901;SDS011;3996;49.674;10.716;2024-01-30T06:39:13;8.07;;;5.90;;
7901;SDS011;3996;49.674;10.716;2024-01-30T06:41:39;8.80;;;6.23;;
7901;SDS011;3996;49.674;10.716;2024-01-30T06:44:04;11.37;;;5.93;;
7901;SDS011;3996;49.674;10.716;2024-01-30T06:46:31;11.23;;;5.77;;
7901;SDS011;3996;49.674;10.716;2024-01-30T06:48:57;8.47;;;6.20;;
7901;SDS011;3996;49.674;10.716;2024-01-30T06:51:23;9.20;;;6.67;;
7901;SDS011;3996;49.674;10.716;2024-01-30T06:53:48;9.43;;;6.17;;
7901;SDS011;3996;49.674;10.716;2024-01-30T06:56:14;10.07;;;6.53;;
7901;SDS011;3996;49.674;10.716;2024-01-30T06:58:39;8.13;;;6.03;;
7901;SDS011;3996;49.674;10.716;2024-01-30T07:01:06;9.70;;;6.00;;
7901;SDS011;3996;49.674;10.716;2024-01-30T07:03:31;10.67;;;6.53;;
7901;SDS011;3996;49.674;10.716;2024-01-30T07:05:57;9.13;;;6.53;;
7901;SDS011;3996;49.674;10.716;2024-01-30T07:08:22;10.77;;;6.70;;
7901;SDS011;3996;49.674;10.716;2024-01-30T07:10:48;8.83;;;6.00;;
7901;SDS011;3996;49.674;10.716;2024-01-30T07:13:14;8.10;;;6.37;;
7901;SDS011;3996;49.674;10.716;2024-01-30T07:15:41;8.43;;;6.17;;
7901;SDS011;3996;49.674;10.716;2024-01-30T07:18:07;9.17;;;6.30;;
7901;SDS011;3996;49.674;10.716;2024-01-30T07:20:33;14.23;;;7.93;;
7901;SDS011;3996;49.674;10.716;2024-01-30T07:22:58;11.07;;;7.13;;
7901;SDS011;3996;49.674;10.716;2024-01-30T07:25:24;12.23;;;7.57;;
7901;SDS011;3996;49.674;10.716;2024-01-30T07:27:54;14.63;;;9.27;;
7901;SDS011;3996;49.674;10.716;2024-01-30T07:30:20;13.83;;;9.67;;
7901;SDS011;3996;49.674;10.716;2024-01-30T07:32:46;14.93;;;10.53;;
7901;SDS011;3996;49.674;10.716;2024-01-30T07:35:12;20.70;;;11.50;;
7901;SDS011;3996;49.674;10.716;2024-01-30T07:37:38;22.20;;;13.07;;
7901;SDS011;3996;49.674;10.716;2024-01-30T07:40:04;19.63;;;12.03;;
7901;SDS011;3996;49.674;10.716;2024-01-30T07:42:31;18.17;;;10.83;;
7901;SDS011;3996;49.674;10.716;2024-01-30T07:44:56;13.90;;;10.00;;
7901;SDS011;3996;49.674;10.716;2024-01-30T07:47:22;11.97;;;8.67;;
7901;SDS011;3996;49.674;10.716;2024-01-30T07:49:47;13.20;;;8.47;;
7901;SDS011;3996;49.674;10.716;2024-01-30T07:52:13;15.30;;;8.80;;
7901;SDS011;3996;49.674;10.716;2024-01-30T07:54:48;10.90;;;7.97;;
7901;SDS011;3996;49.674;10.716;2024-01-30T07:57:14;12.60;;;8.77;;
7901;SDS011;3996;49.674;10.716;2024-01-30T07:59:41;11.93;;;7.77;;
7901;SDS011;3996;49.674;10.716;2024-01-30T08:02:08;10.83;;;7.27;;
7901;SDS011;3996;49.674;10.716;2024-01-30T08:04:34;11.00;;;7.00;;
7901;SDS011;3996;49.674;10.716;2024-01-30T08:07:00;11.10;;;6.80;;
7901;SDS011;3996;49.674;10.716;2024-01-30T08:09:28;11.50;;;6.87;;
7901;SDS011;3996;49.674;10.716;2024-01-30T08:11:53;11.10;;;7.37;;
7901;SDS011;3996;49.674;10.716;2024-01-30T08:14:19;11.97;;;6.97;;
7901;SDS011;3996;49.674;10.716;2024-01-30T08:16:45;11.10;;;7.70;;
7901;SDS011;3996;49.674;10.716;2024-01-30T08:19:10;10.80;;;7.23;;
7901;SDS011;3996;49.674;10.716;2024-01-30T08:21:36;10.23;;;7.17;;
7901;SDS011;3996;49.674;10.716;2024-01-30T08:24:03;11.10;;;7.27;;
7901;SDS011;3996;49.674;10.716;2024-01-30T08:26:29;9.23;;;6.87;;
7901;SDS011;3996;49.674;10.716;2024-01-30T08:28:55;11.87;;;7.80;;
7901;SDS011;3996;49.674;10.716;2024-01-30T08:31:21;10.97;;;7.17;;
7901;SDS011;3996;49.674;10.716;2024-01-30T08:33:46;9.37;;;7.30;;
7901;SDS011;3996;49.674;10.716;2024-01-30T08:36:12;10.60;;;7.63;;
7901;SDS011;3996;49.674;10.716;2024-01-30T08:38:38;12.90;;;7.97;;
7901;SDS011;3996;49.674;10.716;2024-01-30T08:41:03;10.97;;;7.43;;
7901;SDS011;3996;49.674;10.716;2024-01-30T08:43:30;9.07;;;6.70;;
7901;SDS011;3996;49.674;10.716;2024-01-30T08:45:56;9.50;;;6.77;;
7901;SDS011;3996;49.674;10.716;2024-01-30T08:48:24;10.67;;;7.10;;
7901;SDS011;3996;49.674;10.716;2024-01-30T08:50:50;9.17;;;6.77;;
7901;SDS011;3996;49.674;10.716;2024-01-30T08:53:16;12.40;;;8.07;;
7901;SDS011;3996;49.674;10.716;2024-01-30T08:55:42;11.20;;;7.87;;
7901;SDS011;3996;49.674;10.716;2024-01-30T08:58:07;10.37;;;7.80;;
7901;SDS011;3996;49.674;10.716;2024-01-30T09:00:33;15.87;;;9.70;;
7901;SDS011;3996;49.674;10.716;2024-01-30T09:02:58;14.10;;;10.10;;
7901;SDS011;3996;49.674;10.716;2024-01-30T09:05:24;15.03;;;9.10;;
7901;SDS011;3996;49.674;10.716;2024-01-30T09:07:49;11.30;;;8.03;;
7901;SDS011;3996;49.674;10.716;2024-01-30T09:10:15;12.10;;;8.03;;
7901;SDS011;3996;49.674;10.716;2024-01-30T09:12:41;11.63;;;8.10;;
7901;SDS011;3996;49.674;10.716;2024-01-30T09:15:06;10.57;;;7.33;;
7901;SDS011;3996;49.674;10.716;2024-01-30T09:17:33;9.77;;;8.30;;
7901;SDS011;3996;49.674;10.716;2024-01-30T09:19:59;10.57;;;7.73;;
7901;SDS011;3996;49.674;10.716;2024-01-30T09:22:24;12.50;;;8.00;;
7901;SDS011;3996;49.674;10.716;2024-01-30T09:24:50;12.20;;;8.63;;
7901;SDS011;3996;49.674;10.716;2024-01-30T09:27:16;11.33;;;8.23;;
7901;SDS011;3996;49.674;10.716;2024-01-30T09:29:41;12.03;;;8.77;;
7901;SDS011;3996;49.674;10.716;2024-01-30T09:32:07;11.40;;;8.10;;
7901;SDS011;3996;49.674;10.716;2024-01-30T09:34:34;13.93;;;8.03;;
7901;SDS011;3996;49.674;10.716;2024-01-30T09:36:59;8.10;;;6.77;;
7901;SDS011;3996;49.674;10.716;2024-01-30T09:39:25;10.60;;;7.80;;
7901;SDS011;3996;49.674;10.716;2024-01-30T09:44:51;13.97;;;9.37;;
7901;SDS011;3996;49.674;10.716;2024-01-30T09:47:18;13.43;;;9.17;;
7901;SDS011;3996;49.674;10.716;2024-01-30T09:49:44;16.43;;;10.43;;
7901;SDS011;3996;49.674;10.716;2024-01-30T09:52:09;14.10;;;9.30;;
7901;SDS011;3996;49.674;10.716;2024-01-30T09:54:36;15.87;;;9.80;;
7901;SDS011;3996;49.674;10.716;2024-01-30T09:57:02;20.50;;;11.37;;
7901;SDS011;3996;49.674;10.716;2024-01-30T09:59:28;15.20;;;9.47;;
7901;SDS011;3996;49.674;10.716;2024-01-30T10:01:54;13.07;;;8.10;;
7901;SDS011;3996;49.674;10.716;2024-01-30T10:04:20;10.63;;;8.33;;
7901;SDS011;3996;49.674;10.716;2024-01-30T10:06:46;11.20;;;8.83;;
7901;SDS011;3996;49.674;10.716;2024-01-30T10:09:12;11.30;;;8.77;;
7901;SDS011;3996;49.674;10.716;2024-01-30T10:11:38;11.80;;;8.70;;
7901;SDS011;3996;49.674;10.716;2024-01-30T10:14:04;12.47;;;8.50;;
7901;SDS011;3996;49.674;10.716;2024-01-30T10:16:30;12.90;;;8.43;;
7901;SDS011;3996;49.674;10.716;2024-01-30T10:18:55;14.70;;;8.77;;
7901;SDS011;3996;49.674;10.716;2024-01-30T10:21:21;12.37;;;8.97;;
7901;SDS011;3996;49.674;10.716;2024-01-30T10:23:47;10.50;;;7.87;;
7901;SDS011;3996;49.674;10.716;2024-01-30T10:26:12;10.60;;;8.07;;
7901;SDS011;3996;49.674;10.716;2024-01-30T10:28:38;12.97;;;8.60;;
7901;SDS011;3996;49.674;10.716;2024-01-30T10:31:04;11.87;;;8.13;;
7901;SDS011;3996;49.674;10.716;2024-01-30T10:33:30;14.43;;;10.17;;
7901;SDS011;3996;49.674;10.716;2024-01-30T10:36:02;16.40;;;11.13;;
7901;SDS011;3996;49.674;10.716;2024-01-30T10:38:29;12.33;;;7.87;;
7901;SDS011;3996;49.674;10.716;2024-01-30T10:40:57;10.13;;;8.10;;
7901;SDS011;3996;49.674;10.716;2024-01-30T10:43:24;10.97;;;8.70;;
7901;SDS011;3996;49.674;10.716;2024-01-30T10:45:57;13.73;;;9.37;;
7901;SDS011;3996;49.674;10.716;2024-01-30T10:48:37;12.23;;;8.87;;
7901;SDS011;3996;49.674;10.716;2024-01-30T10:51:08;11.40;;;8.87;;
7901;SDS011;3996;49.674;10.716;2024-01-30T10:53:35;15.00;;;9.10;;
7901;SDS011;3996;49.674;10.716;2024-01-30T10:56:02;11.93;;;9.33;;
7901;SDS011;3996;49.674;10.716;2024-01-30T10:58:29;14.07;;;9.00;;
7901;SDS011;3996;49.674;10.716;2024-01-30T11:00:55;10.87;;;8.70;;
7901;SDS011;3996;49.674;10.716;2024-01-30T11:03:21;14.07;;;9.23;;
7901;SDS011;3996;49.674;10.716;2024-01-30T11:05:51;11.00;;;8.83;;
7901;SDS011;3996;49.674;10.716;2024-01-30T11:08:26;12.50;;;8.83;;
7901;SDS011;3996;49.674;10.716;2024-01-30T11:10:57;12.30;;;9.50;;
7901;SDS011;3996;49.674;10.716;2024-01-30T11:13:27;14.63;;;10.53;;
7901;SDS011;3996;49.674;10.716;2024-01-30T11:15:54;11.17;;;9.37;;
7901;SDS011;3996;49.674;10.716;2024-01-30T11:18:23;14.73;;;9.47;;
7901;SDS011;3996;49.674;10.716;2024-01-30T11:20:50;15.33;;;9.10;;
7901;SDS011;3996;49.674;10.716;2024-01-30T11:23:15;15.03;;;9.87;;
7901;SDS011;3996;49.674;10.716;2024-01-30T11:25:43;13.53;;;10.17;;
7901;SDS011;3996;49.674;10.716;2024-01-30T11:28:13;14.23;;;9.87;;
7901;SDS011;3996;49.674;10.716;2024-01-30T11:30:40;12.70;;;9.50;;
7901;SDS011;3996;49.674;10.716;2024-01-30T11:33:10;14.50;;;9.63;;
7901;SDS011;3996;49.674;10.716;2024-01-30T11:35:45;12.67;;;9.93;;
7901;SDS011;3996;49.674;10.716;2024-01-30T11:38:13;15.93;;;10.00;;
7901;SDS011;3996;49.674;10.716;2024-01-30T11:40:39;15.63;;;9.87;;
7901;SDS011;3996;49.674;10.716;2024-01-30T11:43:06;12.33;;;9.70;;
7901;SDS011;3996;49.674;10.716;2024-01-30T11:45:33;15.50;;;10.60;;
7901;SDS011;3996;49.674;10.716;2024-01-30T11:47:59;13.00;;;10.07;;
7901;SDS011;3996;49.674;10.716;2024-01-30T11:50:26;13.40;;;10.20;;
7901;SDS011;3996;49.674;10.716;2024-01-30T11:52:53;14.00;;;10.57;;
7901;SDS011;3996;49.674;10.716;2024-01-30T11:55:19;15.93;;;11.40;;
7901;SDS011;3996;49.674;10.716;2024-01-30T11:57:45;14.47;;;10.30;;
7901;SDS011;3996;49.674;10.716;2024-01-30T12:00:14;14.67;;;10.53;;
7901;SDS011;3996;49.674;10.716;2024-01-30T12:02:41;15.17;;;11.00;;
7901;SDS011;3996;49.674;10.716;2024-01-30T12:05:07;12.97;;;10.27;;
7901;SDS011;3996;49.674;10.716;2024-01-30T12:07:34;15.23;;;10.77;;
7901;SDS011;3996;49.674;10.716;2024-01-30T12:10:00;14.90;;;10.43;;
7901;SDS011;3996;49.674;10.716;2024-01-30T12:12:26;13.00;;;9.40;;
7901;SDS011;3996;49.674;10.716;2024-01-30T12:14:53;14.97;;;10.93;;
7901;SDS011;3996;49.674;10.716;2024-01-30T12:17:28;12.30;;;9.83;;
7901;SDS011;3996;49.674;10.716;2024-01-30T12:20:07;14.03;;;9.77;;
7901;SDS011;3996;49.674;10.716;2024-01-30T12:22:38;12.43;;;9.63;;
7901;SDS011;3996;49.674;10.716;2024-01-30T12:25:08;14.10;;;10.27;;
7901;SDS011;3996;49.674;10.716;2024-01-30T12:27:38;13.10;;;10.30;;
7901;SDS011;3996;49.674;10.716;2024-01-30T12:30:05;13.97;;;9.10;;
7901;SDS011;3996;49.674;10.716;2024-01-30T12:32:33;13.70;;;10.00;;
7901;SDS011;3996;49.674;10.716;2024-01-30T12:35:12;15.00;;;10.07;;
7901;SDS011;3996;49.674;10.716;2024-01-30T12:37:39;16.30;;;10.33;;
7901;SDS011;3996;49.674;10.716;2024-01-30T12:40:06;10.60;;;9.40;;
7901;SDS011;3996;49.674;10.716;2024-01-30T12:42:33;13.60;;;10.13;;
7901;SDS011;3996;49.674;10.716;2024-01-30T12:44:59;15.43;;;10.23;;
7901;SDS011;3996;49.674;10.716;2024-01-30T12:47:24;14.33;;;10.57;;
7901;SDS011;3996;49.674;10.716;2024-01-30T12:49:51;13.90;;;9.77;;
7901;SDS011;3996;49.674;10.716;2024-01-30T12:52:20;15.90;;;10.87;;
7901;SDS011;3996;49.674;10.716;2024-01-30T12:54:49;15.07;;;10.27;;
7901;SDS011;3996;49.674;10.716;2024-01-30T12:57:15;13.73;;;9.90;;
7901;SDS011;3996;49.674;10.716;2024-01-30T12:59:41;12.53;;;10.00;;
7901;SDS011;3996;49.674;10.716;2024-01-30T13:02:08;15.27;;;10.10;;
7901;SDS011;3996;49.674;10.716;2024-01-30T13:04:34;13.93;;;9.83;;
7901;SDS011;3996;49.674;10.716;2024-01-30T13:07:00;13.73;;;10.40;;
7901;SDS011;3996;49.674;10.716;2024-01-30T13:09:25;14.70;;;10.27;;
7901;SDS011;3996;49.674;10.716;2024-01-30T13:11:51;13.30;;;10.00;;
7901;SDS011;3996;49.674;10.716;2024-01-30T13:14:17;14.00;;;9.90;;
7901;SDS011;3996;49.674;10.716;2024-01-30T13:16:43;13.27;;;10.10;;
7901;SDS011;3996;49.674;10.716;2024-01-30T13:19:09;12.57;;;9.73;;
7901;SDS011;3996;49.674;10.716;2024-01-30T13:21:34;13.00;;;9.73;;
7901;SDS011;3996;49.674;10.716;2024-01-30T13:24:00;13.33;;;10.10;;
7901;SDS011;3996;49.674;10.716;2024-01-30T13:26:25;14.63;;;9.87;;
7901;SDS011;3996;49.674;10.716;2024-01-30T13:28:51;16.63;;;10.33;;
7901;SDS011;3996;49.674;10.716;2024-01-30T13:31:17;15.23;;;10.07;;
7901;SDS011;3996;49.674;10.716;2024-01-30T13:33:43;13.10;;;10.50;;
7901;SDS011;3996;49.674;10.716;2024-01-30T13:36:10;11.50;;;10.17;;
7901;SDS011;3996;49.674;10.716;2024-01-30T13:38:36;11.70;;;9.67;;
7901;SDS011;3996;49.674;10.716;2024-01-30T13:41:02;22.67;;;13.03;;
7901;SDS011;3996;49.674;10.716;2024-01-30T13:43:28;14.83;;;9.87;;
7901;SDS011;3996;49.674;10.716;2024-01-30T13:45:54;14.20;;;10.50;;
7901;SDS011;3996;49.674;10.716;2024-01-30T13:48:19;14.03;;;10.30;;
7901;SDS011;3996;49.674;10.716;2024-01-30T13:50:45;17.83;;;10.97;;
7901;SDS011;3996;49.674;10.716;2024-01-30T13:53:11;13.73;;;10.37;;
7901;SDS011;3996;49.674;10.716;2024-01-30T13:55:37;14.20;;;9.90;;
7901;SDS011;3996;49.674;10.716;2024-01-30T13:58:04;12.87;;;10.03;;
7901;SDS011;3996;49.674;10.716;2024-01-30T14:00:30;12.67;;;10.40;;
7901;SDS011;3996;49.674;10.716;2024-01-30T14:02:56;14.07;;;9.70;;
7901;SDS011;3996;49.674;10.716;2024-01-30T14:05:25;13.47;;;10.30;;
7901;SDS011;3996;49.674;10.716;2024-01-30T14:07:51;13.27;;;10.13;;
7901;SDS011;3996;49.674;10.716;2024-01-30T14:10:17;18.30;;;11.00;;
7901;SDS011;3996;49.674;10.716;2024-01-30T14:12:43;16.10;;;11.10;;
7901;SDS011;3996;49.674;10.716;2024-01-30T14:15:09;12.33;;;9.97;;
7901;SDS011;3996;49.674;10.716;2024-01-30T14:17:36;13.77;;;10.37;;
7901;SDS011;3996;49.674;10.716;2024-01-30T14:20:05;12.93;;;10.90;;
7901;SDS011;3996;49.674;10.716;2024-01-30T14:22:32;12.80;;;10.80;;
7901;SDS011;3996;49.674;10.716;2024-01-30T14:24:58;12.33;;;10.40;;
7901;SDS011;3996;49.674;10.716;2024-01-30T14:27:24;12.70;;;10.07;;
7901;SDS011;3996;49.674;10.716;2024-01-30T14:29:50;13.43;;;10.03;;
7901;SDS011;3996;49.674;10.716;2024-01-30T14:32:15;14.87;;;10.60;;
7901;SDS011;3996;49.674;10.716;2024-01-30T14:34:41;15.33;;;10.53;;
7901;SDS011;3996;49.674;10.716;2024-01-30T14:37:07;14.17;;;11.17;;
7901;SDS011;3996;49.674;10.716;2024-01-30T14:39:33;16.07;;;11.63;;
7901;SDS011;3996;49.674;10.716;2024-01-30T14:41:59;14.90;;;12.07;;
7901;SDS011;3996;49.674;10.716;2024-01-30T14:44:24;16.27;;;12.47;;
7901;SDS011;3996;49.674;10.716;2024-01-30T14:46:50;16.83;;;11.83;;
7901;SDS011;3996;49.674;10.716;2024-01-30T14:49:16;17.17;;;12.33;;
7901;SDS011;3996;49.674;10.716;2024-01-30T14:51:42;16.80;;;12.20;;